METAR Data
IDs: Format: Raw Decoded Include TAF

Data at: 1708 UTC 19 Sep 2018

KIOB 191655Z AUTO 32004KT 10SM CLR 30/21 A3006 RMK AO2
KIOB 191635Z AUTO 00000KT 10SM CLR 30/21 A3006 RMK AO2
KIOB 191615Z AUTO 00000KT 10SM CLR 29/22 A3006 RMK AO2
KIOB 191555Z AUTO 00000KT 10SM CLR 28/22 A3006 RMK AO2
KIOB 191535Z AUTO 00000KT 10SM CLR 27/22 A3006 RMK AO2
KIOB 191515Z AUTO 00000KT 10SM CLR 27/22 A3006 RMK AO2
KIOB 191455Z AUTO 23003KT 10SM CLR 26/22 A3006 RMK AO2
KIOB 191435Z AUTO 00000KT 10SM CLR 26/21 A3006 RMK AO2
KIOB 191415Z AUTO 23003KT 10SM CLR 25/21 A3006 RMK AO2
KIOB 191355Z AUTO 24003KT 10SM SCT110 24/21 A3005 RMK AO2
KIOB 191335Z AUTO 24003KT 10SM CLR 23/21 A3005 RMK AO2
KIOB 191315Z AUTO 22004KT 10SM CLR 22/21 A3005 RMK AO2
KIOB 191255Z AUTO 22004KT 10SM CLR 21/20 A3005 RMK AO2
KIOB 191235Z AUTO 23003KT 10SM CLR 20/20 A3005 RMK AO2
KIOB 191215Z AUTO 22003KT 10SM CLR 20/20 A3004 RMK AO2
KIOB 191155Z AUTO 22004KT 10SM CLR 20/19 A3003 RMK AO2
KIOB 191135Z AUTO 23003KT 10SM CLR 20/19 A3003 RMK AO2
KIOB 191115Z AUTO 22004KT 10SM CLR 20/19 A3003 RMK AO2
KIOB 191055Z AUTO 22004KT 10SM CLR 20/19 A3002 RMK AO2
KIOB 191035Z AUTO 22003KT 10SM CLR 20/19 A3001 RMK AO2
KIOB 191015Z AUTO 21004KT 10SM CLR 20/20 A3001 RMK AO2
KIOB 190955Z AUTO 22004KT 10SM CLR 20/20 A3000 RMK AO2
KIOB 190935Z AUTO 22003KT 10SM CLR 20/20 A3000 RMK AO2
KIOB 190915Z AUTO 22003KT 10SM CLR 20/20 A2999 RMK AO2
KIOB 190855Z AUTO 22004KT 10SM CLR 20/20 A2999 RMK AO2
KIOB 190835Z AUTO 22004KT 10SM CLR 20/20 A2999 RMK AO2
KIOB 190815Z AUTO 23003KT 10SM CLR 20/20 A2998 RMK AO2
KIOB 190755Z AUTO 22004KT 10SM CLR 20/20 A2998 RMK AO2
KIOB 190735Z AUTO 22004KT 7SM CLR 20/20 A2998 RMK AO2
KIOB 190715Z AUTO 22003KT 10SM CLR 20/20 A2998 RMK AO2
KIOB 190655Z AUTO 22004KT 10SM CLR 20/20 A2998 RMK AO2
KIOB 190635Z AUTO 22004KT 10SM CLR 20/20 A2998 RMK AO2
KIOB 190615Z AUTO 21004KT 10SM CLR 20/20 A2998 RMK AO2
KIOB 190555Z AUTO 22004KT 10SM CLR 20/20 A2998 RMK AO2
KIOB 190535Z AUTO 22004KT 10SM CLR 20/20 A2998 RMK AO2
KIOB 190515Z AUTO 22004KT 10SM CLR 21/20 A2999 RMK AO2
KIOB 190455Z AUTO 23004KT 10SM CLR 21/20 A2998 RMK AO2
KIOB 190435Z AUTO 22004KT 10SM CLR 21/21 A2998 RMK AO2
KIOB 190415Z AUTO 23005KT 10SM CLR 21/21 A2999 RMK AO2
KIOB 190355Z AUTO 22004KT 10SM CLR 21/20 A2998 RMK AO2
KIOB 190335Z AUTO 21004KT 10SM CLR 21/21 A2998 RMK AO2
KIOB 190315Z AUTO 22004KT 10SM CLR 21/21 A2999 RMK AO2
KIOB 190255Z AUTO 22004KT 10SM CLR 21/21 A2999 RMK AO2
KIOB 190235Z AUTO 22003KT 10SM CLR 22/21 A2999 RMK AO2
KIOB 190215Z AUTO 22004KT 10SM CLR 22/21 A2998 RMK AO2
KIOB 190155Z AUTO 22003KT 10SM CLR 22/21 A2998 RMK AO2
KIOB 190135Z AUTO 21004KT 10SM CLR 22/21 A2998 RMK AO2
KIOB 190115Z AUTO 21004KT 10SM CLR 23/21 A2997 RMK AO2
KIOB 190055Z AUTO 21004KT 10SM CLR 23/21 A2997 RMK AO2
KIOB 190035Z AUTO 21004KT 10SM CLR 23/22 A2997 RMK AO2
KIOB 190015Z AUTO 22004KT 10SM CLR 23/22 A2996 RMK AO2
KIOB 182355Z AUTO 21005KT 10SM CLR 23/22 A2996 RMK AO2
KIOB 182335Z AUTO 21004KT 10SM CLR 23/22 A2996 RMK AO2
KIOB 182315Z AUTO 21003KT 10SM CLR 24/23 A2996 RMK AO2
KIOB 182255Z AUTO 00000KT 10SM SCT050 SCT070 SCT085 25/23 A2996 RMK AO2 P0007
KIOB 182235Z AUTO 00000KT 5SM -RA SCT018 BKN045 OVC095 24/22 A2996 RMK AO2 P0006
KIOB 182215Z AUTO 26003KT 10SM -RA SCT044 BKN050 BKN060 27/22 A2996 RMK AO2
KIOB 182155Z AUTO 14004KT 10SM SCT050 27/22 A2996 RMK AO2
KIOB 182135Z AUTO 00000KT 10SM SCT120 30/21 A2996 RMK AO2
KIOB 182115Z AUTO 00000KT 10SM BKN120 29/21 A2996 RMK AO2
KIOB 182055Z AUTO 00000KT 10SM BKN120 29/21 A2996 RMK AO2
KIOB 182035Z AUTO 00000KT 10SM BKN110 28/21 A2996 RMK AO2
KIOB 182015Z AUTO 00000KT 10SM BKN100 25/22 A2997 RMK AO2
KIOB 181955Z AUTO 00000KT 10SM -RA SCT030 BKN075 OVC090 25/21 A2997 RMK AO2 P0011
KIOB 181935Z AUTO 36010G14KT 2 1/2SM +RA SCT030 SCT046 BKN055 27/21 A2997 RMK AO2 VIS 3/4V5 P0009
KIOB 181915Z AUTO 27003KT 10SM SCT039 SCT075 SCT090 31/20 A2997 RMK AO2
KIOB 181855Z AUTO 26004KT 10SM SCT039 31/20 A2998 RMK AO2
KIOB 181835Z AUTO 00000KT 10SM SCT043 SCT050 SCT070 30/21 A2999 RMK AO2
KIOB 181815Z AUTO 27005KT 10SM SCT043 SCT050 SCT070 30/21 A2999 RMK AO2
KIOB 181755Z AUTO 00000KT 10SM CLR 30/21 A3000 RMK AO2
KIOB 181735Z AUTO 00000KT 10SM CLR 29/20 A3000 RMK AO2
KIOB 181715Z AUTO 25005KT 10SM CLR 29/21 A3001 RMK AO2
KIOB 181655Z AUTO 00000KT 10SM CLR 28/21 A3001 RMK AO2
KIOB 181635Z AUTO 00000KT 10SM SCT070 28/21 A3002 RMK AO2
KIOB 181615Z AUTO 00000KT 10SM OVC070 27/21 A3002 RMK AO2
KIOB 181555Z AUTO 00000KT 10SM BKN070 27/22 A3003 RMK AO2
KIOB 181535Z AUTO 00000KT 10SM CLR 27/22 A3003 RMK AO2
KIOB 181515Z AUTO 00000KT 10SM SCT080 26/21 A3003 RMK AO2
KIOB 181455Z AUTO 27003KT 10SM SCT080 26/22 A3003 RMK AO2
KIOB 181435Z AUTO 00000KT 10SM SCT080 25/21 A3003 RMK AO2
KIOB 181415Z AUTO 00000KT 10SM CLR 25/22 A3002 RMK AO2
KIOB 181355Z AUTO 26003KT 10SM CLR 24/21 A3002 RMK AO2
KIOB 181335Z AUTO 27004KT 10SM CLR 23/21 A3002 RMK AO2
KIOB 181315Z AUTO 26004KT 10SM CLR 22/21 A3002 RMK AO2
KIOB 181255Z AUTO 24003KT 10SM CLR 21/21 A3002 RMK AO2
KIOB 181235Z AUTO 22003KT 10SM CLR 20/20 A3002 RMK AO2
KIOB 181215Z AUTO 22004KT 10SM CLR 20/20 A3002 RMK AO2
KIOB 181155Z AUTO 23004KT 7SM CLR 20/20 A3001 RMK AO2
KIOB 181135Z AUTO 23004KT 7SM CLR 20/20 A3001 RMK AO2
KIOB 181115Z AUTO 23004KT 4SM BR CLR 18/18 A3001 RMK AO2
KIOB 181055Z AUTO 00000KT 10SM CLR 20/20 A3000 RMK AO2
KIOB 181035Z AUTO 25003KT 7SM CLR 20/20 A3000 RMK AO2
KIOB 181015Z AUTO 25003KT 7SM CLR 20/20 A3000 RMK AO2
KIOB 180955Z AUTO 25003KT 10SM CLR 20/20 A3000 RMK AO2
KIOB 180935Z AUTO 25003KT 10SM CLR 20/20 A2999 RMK AO2
KIOB 180915Z AUTO 26004KT 10SM CLR 20/20 A2999 RMK AO2
KIOB 180855Z AUTO 27004KT 10SM CLR 20/20 A2999 RMK AO2 P0001
KIOB 180835Z AUTO 00000KT 10SM CLR 20/20 A2999 RMK AO2 P0001
KIOB 180815Z AUTO 27004KT 10SM CLR 21/20 A2999 RMK AO2
KIOB 180755Z AUTO 00000KT 10SM CLR 21/20 A2999 RMK AO2
KIOB 180735Z AUTO 26004KT 10SM CLR 21/21 A2998 RMK AO2
KIOB 180715Z AUTO 26004KT 10SM CLR 21/21 A2998 RMK AO2
KIOB 180655Z AUTO 27004KT 10SM CLR 21/21 A2998 RMK AO2
KIOB 180635Z AUTO 27004KT 10SM CLR 21/21 A2998 RMK AO2
KIOB 180615Z AUTO 26004KT 10SM CLR 21/21 A2998 RMK AO2
KIOB 180555Z AUTO 27004KT 10SM CLR 21/21 A2998 RMK AO2
KIOB 180535Z AUTO 26004KT 10SM CLR 21/21 A2998 RMK AO2
KIOB 180515Z AUTO 26004KT 10SM CLR 21/21 A2998 RMK AO2